Time;durP1;ratioP1;P1;durP2;ratioP2;P2;SDS_P1;SDS_P2;PMS_P1;PMS_P2;Temp;Humidity;BMP_temperature;BMP_pressure;BME280_temperature;BME280_humidity;BME280_pressure;Samples;Min_cycle;Max_cycle;Signal;HPM_P1;HPM_P2
2024/01/19 00:00:12;;;;;;;11.27;5.43;;;-1.80;99.90;;;;;;4725695;30;20236;-95
2024/01/19 00:02:38;;;;;;;8.37;4.63;;;-1.80;99.90;;;;;;4726259;30;20209;-96
2024/01/19 00:05:05;;;;;;;10.70;5.33;;;-1.80;99.90;;;;;;4726077;30;20659;-95
2024/01/19 00:07:31;;;;;;;7.73;4.90;;;-1.80;99.90;;;;;;4726827;30;20577;-94
2024/01/19 00:09:57;;;;;;;10.03;4.90;;;-1.70;99.90;;;;;;4733758;30;20211;-95
2024/01/19 00:12:23;;;;;;;11.83;4.57;;;-1.80;99.90;;;;;;4740683;30;20272;-96
2024/01/19 00:14:51;;;;;;;11.77;5.57;;;-1.80;99.90;;;;;;4742009;30;20267;-95
2024/01/19 00:17:17;;;;;;;9.90;4.90;;;-1.80;99.90;;;;;;4743679;30;20212;-95
2024/01/19 00:19:43;;;;;;;7.13;4.63;;;-1.70;99.90;;;;;;4742428;30;20190;-96
2024/01/19 00:22:09;;;;;;;7.37;4.70;;;-1.70;99.90;;;;;;4739688;30;20302;-95
2024/01/19 00:24:35;;;;;;;7.20;4.40;;;-1.70;99.90;;;;;;4739557;30;20191;-95
2024/01/19 00:27:00;;;;;;;7.03;4.53;;;-1.70;99.90;;;;;;4741941;30;20293;-94
2024/01/19 00:29:39;;;;;;;8.63;4.57;;;-1.70;99.90;;;;;;4739857;30;20176;-95
2024/01/19 00:32:05;;;;;;;10.10;4.47;;;-1.70;99.90;;;;;;4739658;30;20276;-95
2024/01/19 00:34:31;;;;;;;6.13;4.20;;;-1.70;99.90;;;;;;4740319;30;20184;-96
2024/01/19 00:37:13;;;;;;;7.53;4.30;;;-1.70;99.90;;;;;;4739419;30;20293;-95
2024/01/19 00:39:39;;;;;;;8.13;3.33;;;-1.70;99.90;;;;;;4739321;30;20212;-94
2024/01/19 00:42:06;;;;;;;6.50;3.30;;;-1.70;99.90;;;;;;4738876;30;20243;-94
2024/01/19 00:44:33;;;;;;;7.47;3.70;;;-1.70;99.90;;;;;;4739797;30;20184;-96
2024/01/19 00:46:58;;;;;;;5.70;3.30;;;-1.70;99.90;;;;;;4754868;30;20709;-95
2024/01/19 00:49:24;;;;;;;6.27;3.37;;;-1.70;99.90;;;;;;4756530;30;20180;-95
2024/01/19 00:52:15;;;;;;;5.13;2.93;;;-1.70;99.90;;;;;;4756432;30;20278;-94
2024/01/19 00:54:41;;;;;;;5.00;2.97;;;-1.70;99.90;;;;;;4756909;30;20187;-95
2024/01/19 00:57:11;;;;;;;6.93;3.40;;;-1.70;99.90;;;;;;4756472;30;20212;-96
2024/01/19 00:59:36;;;;;;;5.10;2.80;;;-1.70;99.90;;;;;;4756133;30;20176;-94
2024/01/19 01:02:02;;;;;;;6.73;2.83;;;-1.70;99.90;;;;;;4756311;30;20702;-95
2024/01/19 01:04:28;;;;;;;6.10;3.00;;;-1.70;99.90;;;;;;4756131;30;20187;-94
2024/01/19 01:07:07;;;;;;;8.10;3.30;;;-1.60;99.90;;;;;;4756945;30;20223;-94
2024/01/19 01:09:33;;;;;;;5.17;2.77;;;-1.60;99.90;;;;;;4756457;30;20176;-94
2024/01/19 01:12:21;;;;;;;9.40;3.47;;;-1.60;99.90;;;;;;4756953;30;20186;-94
2024/01/19 01:14:47;;;;;;;7.70;3.37;;;-1.60;99.90;;;;;;4757770;30;20325;-95
2024/01/19 01:17:15;;;;;;;9.53;3.10;;;-1.50;99.90;;;;;;4759792;30;20265;-96
2024/01/19 01:19:41;;;;;;;6.67;3.10;;;-1.50;99.90;;;;;;4760045;30;20648;-96
2024/01/19 01:22:12;;;;;;;5.93;3.00;;;-1.50;99.90;;;;;;4759592;30;20211;-95
2024/01/19 01:24:38;;;;;;;8.80;3.03;;;-1.40;99.90;;;;;;4746726;30;20564;-94
2024/01/19 01:27:17;;;;;;;3.83;2.27;;;-1.40;99.90;;;;;;4742055;30;20215;-94
2024/01/19 01:29:43;;;;;;;6.47;2.63;;;-1.50;99.90;;;;;;4750354;30;20228;-94
2024/01/19 01:32:13;;;;;;;4.70;2.33;;;-1.40;99.90;;;;;;4760502;30;20182;-94
2024/01/19 01:34:39;;;;;;;4.83;2.90;;;-1.40;99.90;;;;;;4759993;30;20310;-95
2024/01/19 01:37:05;;;;;;;6.07;2.97;;;-1.40;99.90;;;;;;4758228;30;20246;-94
2024/01/19 01:39:47;;;;;;;6.30;3.17;;;-1.40;99.90;;;;;;4741785;30;20176;-94
2024/01/19 01:42:12;;;;;;;4.57;2.57;;;-1.40;99.90;;;;;;4741872;30;20267;-95
2024/01/19 01:44:49;;;;;;;7.00;2.70;;;-1.40;99.90;;;;;;4741677;30;20180;-95
2024/01/19 01:47:27;;;;;;;5.37;3.00;;;-1.40;99.90;;;;;;4742264;30;20219;-96
2024/01/19 01:52:28;;;;;;;3.80;2.40;;;-1.40;99.90;;;;;;4983388;24;20253;-86
2024/01/19 01:54:54;;;;;;;6.17;3.20;;;-1.30;99.90;;;;;;4791325;30;20208;-84
2024/01/19 01:57:22;;;;;;;5.07;3.03;;;-1.30;99.90;;;;;;4775431;30;20692;-83
2024/01/19 01:59:49;;;;;;;4.80;2.73;;;-1.30;99.90;;;;;;4775681;30;20666;-84
2024/01/19 02:02:15;;;;;;;5.80;3.27;;;-1.40;99.90;;;;;;4788804;29;20224;-85
2024/01/19 02:04:41;;;;;;;5.67;2.67;;;-1.40;99.90;;;;;;4771885;30;20192;-84
2024/01/19 02:07:08;;;;;;;8.73;3.00;;;-1.30;99.90;;;;;;4791293;30;20191;-84
2024/01/19 02:09:34;;;;;;;5.20;3.07;;;-1.30;99.90;;;;;;4775388;30;20200;-84
2024/01/19 02:12:01;;;;;;;8.33;3.43;;;-1.30;99.90;;;;;;4775517;30;20286;-84
2024/01/19 02:14:26;;;;;;;6.23;3.43;;;-1.30;99.90;;;;;;4775881;30;20647;-83
2024/01/19 02:16:52;;;;;;;7.47;3.27;;;-1.30;99.90;;;;;;4791371;29;20219;-88
2024/01/19 02:19:18;;;;;;;5.50;3.00;;;-1.30;99.90;;;;;;4775480;30;20531;-83
2024/01/19 02:21:44;;;;;;;5.97;3.27;;;-1.30;99.90;;;;;;4772049;30;20278;-84
2024/01/19 02:24:18;;;;;;;6.13;3.30;;;-1.30;99.90;;;;;;4791298;30;20218;-87
2024/01/19 02:26:44;;;;;;;6.67;3.30;;;-1.30;99.90;;;;;;4774144;30;20191;-83
2024/01/19 02:29:10;;;;;;;5.10;3.60;;;-1.20;99.90;;;;;;4775331;30;20231;-83
2024/01/19 02:31:35;;;;;;;5.60;3.27;;;-1.20;99.90;;;;;;4775488;30;20218;-84
2024/01/19 02:34:01;;;;;;;6.83;3.37;;;-1.10;99.90;;;;;;4775643;30;20202;-83
2024/01/19 02:36:27;;;;;;;6.47;3.13;;;-1.10;99.90;;;;;;4775166;30;20567;-83
2024/01/19 02:38:53;;;;;;;5.20;2.90;;;-1.20;99.90;;;;;;4783579;29;20199;-84
2024/01/19 02:41:19;;;;;;;8.30;3.47;;;-1.10;99.90;;;;;;4768593;30;20650;-82
2024/01/19 02:43:44;;;;;;;7.00;3.40;;;-1.10;99.90;;;;;;4775101;30;20215;-83
2024/01/19 02:46:13;;;;;;;6.73;3.17;;;-1.20;99.90;;;;;;4783806;30;20209;-84
2024/01/19 02:48:39;;;;;;;5.00;3.10;;;-1.20;99.90;;;;;;4791383;30;20621;-84
2024/01/19 02:51:05;;;;;;;9.13;3.40;;;-1.20;99.90;;;;;;4788919;29;20290;-83
2024/01/19 02:53:31;;;;;;;8.73;3.30;;;-1.20;99.90;;;;;;4775178;30;20510;-84
2024/01/19 02:55:56;;;;;;;10.47;3.77;;;-1.30;99.90;;;;;;4775346;30;20506;-83
2024/01/19 02:58:22;;;;;;;7.20;3.40;;;-1.30;99.90;;;;;;4774783;30;20202;-83
2024/01/19 03:00:47;;;;;;;4.37;2.93;;;-1.30;99.90;;;;;;4774892;30;20228;-83
2024/01/19 03:03:13;;;;;;;8.00;3.27;;;-1.30;99.90;;;;;;4774769;30;20229;-83
2024/01/19 03:05:39;;;;;;;6.73;3.17;;;-1.30;99.90;;;;;;4774735;30;20310;-84
2024/01/19 03:08:05;;;;;;;6.70;3.50;;;-1.30;99.90;;;;;;4790449;30;20198;-83
2024/01/19 03:10:30;;;;;;;5.90;3.60;;;-1.30;99.90;;;;;;4774719;30;20574;-84
2024/01/19 03:12:56;;;;;;;6.77;3.63;;;-1.20;99.90;;;;;;4773685;30;20197;-84
2024/01/19 03:15:22;;;;;;;4.87;3.33;;;-1.20;99.90;;;;;;4768221;30;20357;-81
2024/01/19 03:17:47;;;;;;;6.17;3.60;;;-1.20;99.90;;;;;;4768263;30;20238;-84
2024/01/19 03:20:13;;;;;;;4.53;3.33;;;-1.20;99.90;;;;;;4790429;30;20536;-83
2024/01/19 03:22:39;;;;;;;10.60;3.50;;;-1.20;99.90;;;;;;4787396;30;20218;-84
2024/01/19 03:25:06;;;;;;;6.83;3.67;;;-1.20;99.90;;;;;;4774209;30;20191;-83
2024/01/19 03:27:32;;;;;;;5.50;3.57;;;-1.20;99.90;;;;;;4774484;30;20202;-83
2024/01/19 03:29:57;;;;;;;5.60;3.60;;;-1.20;99.90;;;;;;4774493;30;20257;-84
2024/01/19 03:32:23;;;;;;;7.13;3.90;;;-1.20;99.90;;;;;;4790519;29;20187;-83
2024/01/19 03:34:49;;;;;;;6.13;4.07;;;-1.20;99.90;;;;;;4774440;30;20195;-83
2024/01/19 03:37:15;;;;;;;9.70;4.40;;;-1.20;99.90;;;;;;4773806;29;20191;-84
2024/01/19 03:39:40;;;;;;;11.23;4.73;;;-1.20;99.90;;;;;;4790418;29;20619;-87
2024/01/19 03:42:06;;;;;;;8.20;3.90;;;-1.20;99.90;;;;;;4773914;30;20241;-84
2024/01/19 03:44:32;;;;;;;9.10;4.73;;;-1.10;99.90;;;;;;4774023;30;20267;-83
2024/01/19 03:46:59;;;;;;;6.87;4.20;;;-1.10;99.90;;;;;;4773907;30;20214;-83
2024/01/19 03:49:25;;;;;;;8.30;5.10;;;-1.10;99.90;;;;;;4773934;30;20191;-83
2024/01/19 03:52:02;;;;;;;8.83;4.97;;;-1.10;99.90;;;;;;4770401;30;20246;-85
2024/01/19 03:54:28;;;;;;;8.40;5.23;;;-1.10;99.90;;;;;;4774180;30;20706;-89
2024/01/19 03:56:55;;;;;;;8.97;5.00;;;-1.10;99.90;;;;;;4789760;30;20188;-84
2024/01/19 03:59:21;;;;;;;8.57;5.47;;;-1.10;99.90;;;;;;4773947;30;20195;-84
2024/01/19 04:01:48;;;;;;;9.73;5.53;;;-1.10;99.90;;;;;;4773744;30;20183;-84
2024/01/19 04:04:13;;;;;;;9.13;5.33;;;-1.10;99.90;;;;;;4789371;29;20195;-84
2024/01/19 04:06:39;;;;;;;9.33;5.60;;;-1.10;99.90;;;;;;4773602;30;20220;-83
2024/01/19 04:09:06;;;;;;;9.87;6.03;;;-1.20;99.90;;;;;;4773389;30;20195;-85
2024/01/19 04:11:36;;;;;;;10.67;5.57;;;-1.20;99.90;;;;;;4773374;30;20183;-85
2024/01/19 04:14:02;;;;;;;14.67;5.70;;;-1.20;99.90;;;;;;4773684;30;20191;-85
2024/01/19 04:16:28;;;;;;;9.53;5.80;;;-1.20;99.90;;;;;;4766230;30;20636;-84
2024/01/19 04:18:54;;;;;;;8.27;5.23;;;-1.30;99.90;;;;;;4773395;30;20187;-83
2024/01/19 04:21:19;;;;;;;8.87;5.50;;;-1.30;99.90;;;;;;4769007;30;20198;-83
2024/01/19 04:23:45;;;;;;;9.13;5.60;;;-1.30;99.90;;;;;;4765642;30;20225;-84
2024/01/19 04:26:11;;;;;;;8.20;5.70;;;-1.30;99.90;;;;;;4766282;30;20198;-86
2024/01/19 04:28:37;;;;;;;8.10;5.20;;;-1.30;99.90;;;;;;4773474;30;20623;-86
2024/01/19 04:31:05;;;;;;;13.57;5.70;;;-1.30;99.90;;;;;;4773337;30;20645;-83
2024/01/19 04:33:30;;;;;;;8.10;4.87;;;-1.30;99.90;;;;;;4773369;30;20202;-84
2024/01/19 04:35:56;;;;;;;9.57;5.60;;;-1.40;99.90;;;;;;4773446;30;20199;-84
2024/01/19 04:38:22;;;;;;;8.37;5.57;;;-1.40;99.90;;;;;;4773321;30;20615;-83
2024/01/19 04:40:48;;;;;;;10.20;5.70;;;-1.40;99.90;;;;;;4773420;30;20261;-85
2024/01/19 04:43:13;;;;;;;11.10;5.87;;;-1.30;99.90;;;;;;4765884;30;20318;-84
2024/01/19 04:45:39;;;;;;;9.93;6.10;;;-1.30;99.90;;;;;;4789378;30;20183;-84
2024/01/19 04:48:05;;;;;;;8.37;5.57;;;-1.30;99.90;;;;;;4765677;30;20231;-83
2024/01/19 04:50:30;;;;;;;8.50;5.73;;;-1.20;99.90;;;;;;4772570;30;20615;-84
2024/01/19 04:52:56;;;;;;;8.47;5.80;;;-1.30;99.90;;;;;;4766938;30;20254;-83
2024/01/19 04:55:22;;;;;;;14.30;6.00;;;-1.30;99.90;;;;;;4770460;30;20199;-84
2024/01/19 04:57:48;;;;;;;9.30;6.33;;;-1.30;99.90;;;;;;4763067;30;20211;-84
2024/01/19 05:00:14;;;;;;;11.23;6.27;;;-1.40;99.90;;;;;;4770230;30;20287;-83
2024/01/19 05:02:40;;;;;;;11.50;6.33;;;-1.40;99.90;;;;;;4769741;30;20720;-84
2024/01/19 05:05:06;;;;;;;12.37;6.67;;;-1.40;99.90;;;;;;4770024;30;20234;-84
2024/01/19 05:07:33;;;;;;;14.40;7.47;;;-1.40;99.90;;;;;;4769802;30;20243;-85
2024/01/19 05:10:00;;;;;;;10.57;6.53;;;-1.40;99.90;;;;;;4770064;30;20705;-84
2024/01/19 05:12:25;;;;;;;11.97;7.03;;;-1.40;99.90;;;;;;4765816;30;20554;-84
2024/01/19 05:14:51;;;;;;;11.53;6.83;;;-1.50;99.90;;;;;;4768229;30;20187;-83
2024/01/19 05:17:18;;;;;;;10.10;6.33;;;-1.50;99.90;;;;;;4764269;30;20183;-84
2024/01/19 05:19:43;;;;;;;11.90;6.37;;;-1.50;99.90;;;;;;4762850;30;20196;-84
2024/01/19 05:22:09;;;;;;;10.53;5.97;;;-1.50;99.90;;;;;;4766808;30;20299;-84
2024/01/19 05:24:39;;;;;;;16.03;6.20;;;-1.50;99.90;;;;;;4765647;30;20192;-84
2024/01/19 05:27:05;;;;;;;13.63;6.00;;;-1.50;99.90;;;;;;4769724;30;20189;-83
2024/01/19 05:29:31;;;;;;;10.77;5.80;;;-1.50;99.90;;;;;;4769127;30;20776;-83
2024/01/19 05:31:56;;;;;;;9.43;5.67;;;-1.50;99.90;;;;;;4762022;30;20275;-84
2024/01/19 05:34:23;;;;;;;11.33;5.87;;;-1.40;99.90;;;;;;4769622;30;20200;-84
2024/01/19 05:36:49;;;;;;;10.27;6.30;;;-1.40;99.90;;;;;;4769066;30;20192;-83
2024/01/19 05:39:14;;;;;;;10.43;5.33;;;-1.40;99.90;;;;;;4769375;30;20650;-83
2024/01/19 05:41:40;;;;;;;11.43;5.70;;;-1.40;99.90;;;;;;4761336;30;20616;-83
2024/01/19 05:44:06;;;;;;;15.33;6.47;;;-1.40;99.90;;;;;;4769228;30;20203;-84
2024/01/19 05:46:32;;;;;;;12.73;6.67;;;-1.40;99.90;;;;;;4768806;30;20628;-83
2024/01/19 05:48:57;;;;;;;13.33;6.80;;;-1.40;99.90;;;;;;4769063;30;20203;-84
2024/01/19 05:51:23;;;;;;;13.97;7.13;;;-1.30;99.90;;;;;;4765894;30;20284;-83
2024/01/19 05:53:49;;;;;;;11.40;7.30;;;-1.30;99.90;;;;;;4769538;30;20188;-83
2024/01/19 05:56:14;;;;;;;17.20;6.63;;;-1.30;99.90;;;;;;4769266;30;20287;-83
2024/01/19 05:58:40;;;;;;;11.50;7.70;;;-1.30;99.90;;;;;;4769070;30;20192;-84
2024/01/19 06:01:06;;;;;;;13.73;7.30;;;-1.30;99.90;;;;;;4770275;30;20199;-83
2024/01/19 06:03:35;;;;;;;12.63;6.73;;;-1.30;99.90;;;;;;4772612;30;20227;-84
2024/01/19 06:06:04;;;;;;;12.37;7.43;;;-1.30;99.90;;;;;;4766372;30;20621;-84
2024/01/19 06:08:31;;;;;;;13.10;7.47;;;-1.20;99.90;;;;;;4771547;30;20206;-84
2024/01/19 06:10:57;;;;;;;11.63;7.43;;;-1.30;99.90;;;;;;4770866;30;20199;-83
2024/01/19 06:13:23;;;;;;;11.90;7.23;;;-1.20;99.90;;;;;;4766758;30;20560;-83
2024/01/19 06:15:49;;;;;;;9.73;6.70;;;-1.20;99.90;;;;;;4760667;30;20197;-84
2024/01/19 06:18:14;;;;;;;13.63;7.37;;;-1.20;99.90;;;;;;4770611;30;20192;-84
2024/01/19 06:20:43;;;;;;;13.10;7.23;;;-1.20;99.90;;;;;;4770659;30;20199;-84
2024/01/19 06:23:10;;;;;;;10.33;7.30;;;-1.20;99.90;;;;;;4761636;30;20220;-85
2024/01/19 06:25:37;;;;;;;12.93;6.83;;;-1.20;99.90;;;;;;4770610;30;20184;-84
2024/01/19 06:28:03;;;;;;;12.50;7.00;;;-1.20;99.90;;;;;;4770808;30;20559;-83
2024/01/19 06:30:29;;;;;;;10.03;6.40;;;-1.20;99.90;;;;;;4770984;30;20195;-84
2024/01/19 06:32:57;;;;;;;12.57;6.40;;;-1.10;99.90;;;;;;4771301;30;20262;-83
2024/01/19 06:35:23;;;;;;;12.57;6.43;;;-1.10;99.90;;;;;;4772314;30;20203;-85
2024/01/19 06:37:49;;;;;;;10.30;7.10;;;-1.10;99.90;;;;;;4771967;30;20198;-84
2024/01/19 06:40:15;;;;;;;11.20;7.33;;;-1.10;99.90;;;;;;4772059;30;20192;-84
2024/01/19 06:42:44;;;;;;;11.53;6.47;;;-1.10;99.90;;;;;;4772030;30;20216;-83
2024/01/19 06:45:11;;;;;;;14.57;6.73;;;-1.00;99.90;;;;;;4769192;30;20199;-83
2024/01/19 06:47:37;;;;;;;12.67;7.27;;;-1.10;99.90;;;;;;4767060;30;20203;-83
2024/01/19 06:50:03;;;;;;;12.63;6.93;;;-1.10;99.90;;;;;;4771809;30;20224;-84
2024/01/19 06:52:29;;;;;;;10.47;7.07;;;-1.10;99.90;;;;;;4771531;30;20240;-84
2024/01/19 06:54:55;;;;;;;12.20;7.47;;;-1.10;99.90;;;;;;4771416;30;20188;-83
2024/01/19 06:57:20;;;;;;;11.53;7.10;;;-1.10;99.90;;;;;;4771472;30;20219;-83
2024/01/19 06:59:46;;;;;;;11.40;7.07;;;-1.10;99.90;;;;;;4771575;30;20260;-84
2024/01/19 07:02:12;;;;;;;10.27;7.00;;;-1.10;99.90;;;;;;4771725;30;20223;-84
2024/01/19 07:04:38;;;;;;;16.67;6.83;;;-1.00;99.90;;;;;;4764436;30;20196;-83
2024/01/19 07:07:03;;;;;;;10.27;7.17;;;-1.10;99.90;;;;;;4771313;30;20214;-84
2024/01/19 07:09:29;;;;;;;15.33;7.00;;;-1.10;99.90;;;;;;4772725;30;20189;-84
2024/01/19 07:11:55;;;;;;;11.90;7.00;;;-1.10;99.90;;;;;;4771213;30;20248;-84
2024/01/19 07:14:21;;;;;;;11.83;6.47;;;-1.10;99.90;;;;;;4771076;30;20192;-84
2024/01/19 07:16:47;;;;;;;14.83;6.73;;;-1.20;99.90;;;;;;4763628;30;20195;-83
2024/01/19 07:19:13;;;;;;;14.30;7.43;;;-1.20;99.90;;;;;;4771308;30;20533;-83
2024/01/19 07:21:40;;;;;;;8.97;6.47;;;-1.20;99.90;;;;;;4768332;30;20210;-83
2024/01/19 07:24:07;;;;;;;16.03;6.83;;;-1.20;99.90;;;;;;4770928;30;20786;-82
2024/01/19 07:26:34;;;;;;;14.40;7.00;;;-1.20;99.90;;;;;;4770914;30;20196;-82
2024/01/19 07:29:04;;;;;;;12.80;6.93;;;-1.20;99.90;;;;;;4771433;30;20191;-84
2024/01/19 07:31:32;;;;;;;12.90;6.30;;;-1.20;99.90;;;;;;4772553;30;20210;-85
2024/01/19 07:33:58;;;;;;;11.57;7.17;;;-1.20;99.90;;;;;;4770443;30;20191;-85
2024/01/19 07:36:25;;;;;;;11.10;7.20;;;-1.10;99.90;;;;;;4766107;30;20192;-85
2024/01/19 07:38:50;;;;;;;11.57;7.30;;;-1.10;99.90;;;;;;4771350;30;20192;-85
2024/01/19 07:41:16;;;;;;;12.67;6.90;;;-1.10;99.90;;;;;;4749292;30;20203;-84
2024/01/19 07:43:42;;;;;;;13.03;7.67;;;-1.10;99.90;;;;;;4771501;30;20226;-84
2024/01/19 07:46:07;;;;;;;12.70;6.93;;;-1.10;99.90;;;;;;4770633;30;20545;-85
2024/01/19 07:48:33;;;;;;;10.43;7.73;;;-1.10;99.90;;;;;;4771155;30;20603;-85
2024/01/19 07:50:59;;;;;;;10.53;6.90;;;-1.10;99.90;;;;;;4771847;30;20240;-84
2024/01/19 07:53:25;;;;;;;10.70;6.80;;;-1.00;99.90;;;;;;4766017;30;20256;-85
2024/01/19 07:55:50;;;;;;;10.10;6.53;;;-1.00;99.90;;;;;;4766475;30;20200;-86
2024/01/19 07:58:16;;;;;;;11.97;6.63;;;-1.00;99.90;;;;;;4771733;30;20251;-84
2024/01/19 08:00:42;;;;;;;13.13;6.93;;;-1.00;99.90;;;;;;4771940;30;20225;-85
2024/01/19 08:03:08;;;;;;;8.90;6.80;;;-1.00;99.90;;;;;;4770323;30;20238;-85
2024/01/19 08:05:34;;;;;;;9.53;6.90;;;-1.00;99.90;;;;;;4772381;30;20191;-84
2024/01/19 08:08:00;;;;;;;13.60;7.23;;;-1.00;99.90;;;;;;4772530;30;20195;-85
2024/01/19 08:10:26;;;;;;;10.77;6.60;;;-0.90;99.90;;;;;;4770431;30;20194;-84
2024/01/19 08:12:51;;;;;;;10.40;6.93;;;-0.90;99.90;;;;;;4763054;30;20274;-85
2024/01/19 08:15:17;;;;;;;9.30;6.40;;;-0.80;99.90;;;;;;4773802;30;20354;-85
2024/01/19 08:17:43;;;;;;;12.07;7.30;;;-0.80;99.90;;;;;;4773349;30;20259;-85
2024/01/19 08:20:10;;;;;;;14.17;7.47;;;-0.80;99.90;;;;;;4773671;30;20195;-85
2024/01/19 08:22:36;;;;;;;15.90;7.73;;;-0.80;99.90;;;;;;4773342;30;20227;-85
2024/01/19 08:25:02;;;;;;;12.23;8.23;;;-0.70;99.90;;;;;;4765472;30;20187;-85
2024/01/19 08:27:28;;;;;;;12.83;7.97;;;-0.70;99.90;;;;;;4773540;30;20227;-86
2024/01/19 08:29:54;;;;;;;14.27;8.30;;;-0.70;99.90;;;;;;4773587;30;20219;-86
2024/01/19 08:32:19;;;;;;;17.83;7.70;;;-0.70;99.90;;;;;;4773270;30;20198;-86
2024/01/19 08:34:45;;;;;;;13.33;8.83;;;-0.70;99.90;;;;;;4773750;30;20599;-86
2024/01/19 08:37:11;;;;;;;15.33;8.30;;;-0.60;99.90;;;;;;4772930;30;20199;-87
2024/01/19 08:39:38;;;;;;;15.97;8.77;;;-0.60;99.90;;;;;;4783546;30;20187;-86
2024/01/19 08:42:05;;;;;;;12.00;8.70;;;-0.60;99.90;;;;;;4763013;30;20234;-86
2024/01/19 08:44:31;;;;;;;10.83;7.97;;;-0.50;99.90;;;;;;4765658;30;20202;-86
2024/01/19 08:46:57;;;;;;;12.73;7.70;;;-0.40;99.90;;;;;;4773202;30;20190;-86
2024/01/19 08:49:24;;;;;;;14.00;7.13;;;-0.40;99.90;;;;;;4772953;30;20258;-88
2024/01/19 08:51:51;;;;;;;11.13;7.70;;;-0.30;99.90;;;;;;4772886;30;20265;-89
2024/01/19 08:54:18;;;;;;;16.27;7.23;;;-0.30;99.90;;;;;;4755902;30;20252;-89
2024/01/19 08:56:43;;;;;;;11.20;7.07;;;-0.30;99.90;;;;;;4769114;30;20203;-88
2024/01/19 08:59:09;;;;;;;10.13;7.70;;;-0.20;99.90;;;;;;4771186;30;20198;-89
2024/01/19 09:01:35;;;;;;;12.23;7.83;;;-0.20;99.90;;;;;;4768216;30;20191;-88
2024/01/19 09:04:01;;;;;;;15.90;8.77;;;-0.10;99.90;;;;;;4772645;30;20282;-89
2024/01/19 09:06:27;;;;;;;16.27;8.50;;;-0.10;99.90;;;;;;4773096;30;20287;-89
2024/01/19 09:08:52;;;;;;;10.83;7.47;;;0.00;99.90;;;;;;4773031;30;20230;-89
2024/01/19 09:11:18;;;;;;;12.60;7.73;;;0.10;99.90;;;;;;4764320;30;20199;-89
2024/01/19 09:13:44;;;;;;;10.63;7.77;;;0.10;99.90;;;;;;4766170;30;20195;-89
2024/01/19 09:16:10;;;;;;;13.13;8.27;;;0.10;99.90;;;;;;4772991;30;20187;-89
2024/01/19 09:18:37;;;;;;;14.67;8.17;;;0.10;99.90;;;;;;4772776;30;20195;-89
2024/01/19 09:21:03;;;;;;;13.37;8.53;;;0.10;99.90;;;;;;4772788;30;20191;-90
2024/01/19 09:23:29;;;;;;;11.73;8.23;;;0.20;99.90;;;;;;4768128;30;20223;-89
2024/01/19 09:25:55;;;;;;;13.10;7.87;;;0.30;99.90;;;;;;4770690;30;20194;-90
2024/01/19 09:28:21;;;;;;;12.90;7.20;;;0.40;99.90;;;;;;4773200;30;20201;-89
2024/01/19 09:30:47;;;;;;;11.83;7.33;;;0.30;99.90;;;;;;4789068;30;20186;-91
2024/01/19 09:33:16;;;;;;;11.83;6.83;;;0.30;99.90;;;;;;4765585;30;20210;-90
2024/01/19 09:35:42;;;;;;;9.70;6.50;;;0.30;99.90;;;;;;4773708;30;20254;-90
2024/01/19 09:38:08;;;;;;;13.13;8.50;;;0.40;99.90;;;;;;4776774;30;20195;-89
2024/01/19 09:40:34;;;;;;;12.63;7.23;;;0.40;99.90;;;;;;4772102;30;20620;-90
2024/01/19 09:43:01;;;;;;;15.47;7.50;;;0.40;99.90;;;;;;4772729;30;20285;-89
2024/01/19 09:45:38;;;;;;;13.30;7.83;;;0.40;99.90;;;;;;4776948;30;20191;-91
2024/01/19 09:48:04;;;;;;;12.57;7.20;;;0.50;99.90;;;;;;4775747;30;20195;-91
2024/01/19 09:50:35;;;;;;;10.60;7.57;;;0.50;99.90;;;;;;4769505;30;20195;-91
2024/01/19 09:53:09;;;;;;;10.80;7.87;;;0.50;99.90;;;;;;4776534;30;20280;-90
2024/01/19 09:55:35;;;;;;;13.87;7.47;;;0.50;99.90;;;;;;4771405;30;20200;-89
2024/01/19 09:58:01;;;;;;;16.33;7.33;;;0.50;99.90;;;;;;4774439;30;20612;-90
2024/01/19 10:00:28;;;;;;;13.07;7.60;;;0.50;99.90;;;;;;4768619;30;20278;-90
2024/01/19 10:02:54;;;;;;;9.57;7.53;;;0.50;99.90;;;;;;4775683;30;20223;-90
2024/01/19 10:05:21;;;;;;;13.27;7.83;;;0.60;99.90;;;;;;4792208;30;20280;-90
2024/01/19 10:07:49;;;;;;;11.13;7.57;;;0.60;99.90;;;;;;4776253;30;20199;-91
2024/01/19 10:10:15;;;;;;;12.00;7.57;;;0.70;99.90;;;;;;4768857;30;20195;-89
2024/01/19 10:12:42;;;;;;;12.43;8.00;;;0.70;99.90;;;;;;4771408;30;20634;-90
2024/01/19 10:15:12;;;;;;;12.30;7.67;;;0.80;99.90;;;;;;4775946;30;20202;-91
2024/01/19 10:17:40;;;;;;;15.27;7.80;;;0.90;99.90;;;;;;4791812;29;20623;-89
2024/01/19 10:20:09;;;;;;;12.67;8.53;;;0.90;99.90;;;;;;4768686;30;20202;-91
2024/01/19 10:22:35;;;;;;;13.53;7.87;;;0.90;99.90;;;;;;4791943;29;20258;-90
2024/01/19 10:25:09;;;;;;;12.17;8.20;;;1.00;99.90;;;;;;4775917;30;20230;-89
2024/01/19 10:27:50;;;;;;;12.17;8.73;;;1.00;99.90;;;;;;4775625;30;20284;-89
2024/01/19 10:30:24;;;;;;;12.10;8.70;;;1.00;99.90;;;;;;4768462;30;20195;-91
2024/01/19 10:32:52;;;;;;;13.63;8.23;;;1.10;99.90;;;;;;4775770;30;20194;-90
2024/01/19 10:35:22;;;;;;;11.10;8.17;;;1.10;99.90;;;;;;4791846;30;20214;-90
2024/01/19 10:37:49;;;;;;;15.40;8.73;;;1.10;99.90;;;;;;4776102;30;20205;-91
2024/01/19 10:40:19;;;;;;;14.10;8.40;;;1.10;99.90;;;;;;4773055;30;20563;-90
2024/01/19 10:42:46;;;;;;;14.70;7.93;;;1.20;99.90;;;;;;4771480;30;20284;-90
2024/01/19 10:45:21;;;;;;;11.33;7.87;;;1.30;99.90;;;;;;4775316;30;20210;-91
2024/01/19 10:47:48;;;;;;;9.43;7.30;;;1.30;99.90;;;;;;4774781;30;20202;-91
2024/01/19 10:50:15;;;;;;;11.40;7.60;;;1.30;99.90;;;;;;4775357;30;20199;-90
2024/01/19 10:52:46;;;;;;;11.27;7.27;;;1.30;99.90;;;;;;4775156;30;20271;-92
2024/01/19 10:55:26;;;;;;;13.17;7.60;;;1.20;99.90;;;;;;4775278;30;20206;-91
2024/01/19 10:58:11;;;;;;;12.60;7.83;;;1.20;99.90;;;;;;4767636;30;20286;-91
2024/01/19 11:00:41;;;;;;;14.57;7.40;;;1.20;99.90;;;;;;4791281;30;20187;-89
2024/01/19 11:03:07;;;;;;;10.20;7.03;;;1.30;99.90;;;;;;4774998;30;20226;-90
2024/01/19 11:05:34;;;;;;;10.80;7.17;;;1.30;99.90;;;;;;4775068;30;20210;-91
2024/01/19 11:08:01;;;;;;;13.57;7.03;;;1.20;99.90;;;;;;4774946;30;20191;-90
2024/01/19 11:10:29;;;;;;;13.23;7.93;;;1.20;99.90;;;;;;4773785;30;20222;-93
2024/01/19 11:12:56;;;;;;;13.43;8.33;;;1.20;99.90;;;;;;4788106;30;20270;-90
2024/01/19 11:15:53;;;;;;;14.60;8.40;;;1.20;99.90;;;;;;4774948;30;20607;-93
2024/01/19 11:18:23;;;;;;;13.57;7.40;;;1.30;99.90;;;;;;4757152;30;20200;-91
2024/01/19 11:20:52;;;;;;;16.47;8.73;;;1.20;99.90;;;;;;4780636;30;20194;-91
2024/01/19 11:23:18;;;;;;;13.00;8.07;;;1.20;99.90;;;;;;4767593;30;20223;-91
2024/01/19 11:25:59;;;;;;;10.17;7.67;;;1.30;99.90;;;;;;4774926;30;20226;-92
2024/01/19 11:28:51;;;;;;;11.93;7.70;;;1.30;99.90;;;;;;4755131;30;20196;-92
2024/01/19 11:31:25;;;;;;;12.23;8.07;;;1.30;99.90;;;;;;4775107;30;20688;-93
2024/01/19 11:33:53;;;;;;;12.37;8.10;;;1.30;99.90;;;;;;4775100;30;20230;-92
2024/01/19 11:36:40;;;;;;;11.80;8.27;;;1.40;99.90;;;;;;4764655;30;20564;-92
2024/01/19 11:39:08;;;;;;;12.73;8.27;;;1.50;99.90;;;;;;4773149;30;20639;-91
2024/01/19 11:41:35;;;;;;;13.30;7.80;;;1.50;99.90;;;;;;4766197;30;20619;-90
2024/01/19 11:44:03;;;;;;;13.83;8.20;;;1.60;99.90;;;;;;4774351;30;20219;-89
2024/01/19 11:46:42;;;;;;;15.47;8.60;;;1.60;99.90;;;;;;4774654;30;20191;-92
2024/01/19 11:49:08;;;;;;;13.90;7.77;;;1.80;99.90;;;;;;4767085;30;20311;-91
2024/01/19 11:51:35;;;;;;;14.70;8.10;;;1.70;99.90;;;;;;4774362;30;20741;-91
2024/01/19 11:54:02;;;;;;;14.03;7.70;;;1.80;99.90;;;;;;4790300;30;20195;-89
2024/01/19 11:56:28;;;;;;;11.40;8.03;;;1.80;99.90;;;;;;4774316;30;20551;-90
2024/01/19 11:58:54;;;;;;;13.17;7.77;;;1.90;99.90;;;;;;4766544;30;20195;-89
2024/01/19 12:01:23;;;;;;;15.13;7.60;;;2.00;99.90;;;;;;4774374;30;20271;-92
2024/01/19 12:03:53;;;;;;;14.73;6.93;;;2.00;99.90;;;;;;4773826;30;20562;-91
2024/01/19 12:06:20;;;;;;;16.27;8.00;;;2.10;99.90;;;;;;4770749;30;20191;-93
2024/01/19 12:09:07;;;;;;;15.20;7.63;;;2.10;99.90;;;;;;4770320;30;20255;-89
2024/01/19 12:11:34;;;;;;;12.43;7.27;;;2.20;99.90;;;;;;4754472;30;20187;-88
2024/01/19 12:14:03;;;;;;;16.10;7.47;;;2.10;99.90;;;;;;4774125;30;20183;-91
2024/01/19 12:16:32;;;;;;;16.70;7.30;;;2.20;99.90;;;;;;4774181;30;20195;-89
2024/01/19 12:18:58;;;;;;;13.43;7.57;;;2.20;99.90;;;;;;4773999;30;20272;-90
2024/01/19 12:21:25;;;;;;;20.13;7.80;;;2.20;99.90;;;;;;4790223;30;20541;-87
2024/01/19 12:23:58;;;;;;;12.00;7.73;;;2.20;99.90;;;;;;4773679;30;20330;-90
2024/01/19 12:26:24;;;;;;;12.70;7.53;;;2.20;99.90;;;;;;4767115;30;20231;-87
2024/01/19 12:28:52;;;;;;;13.73;7.60;;;2.20;99.90;;;;;;4783340;30;20650;-91
2024/01/19 12:31:36;;;;;;;12.27;7.27;;;2.10;99.90;;;;;;4756329;30;20533;-90
2024/01/19 12:34:12;;;;;;;12.17;7.03;;;2.00;99.90;;;;;;4771525;30;20206;-89
2024/01/19 12:36:39;;;;;;;15.23;7.70;;;2.00;99.90;;;;;;4773566;30;20191;-91
2024/01/19 12:39:10;;;;;;;14.23;7.23;;;2.10;99.90;;;;;;4773542;30;20195;-90
2024/01/19 12:41:39;;;;;;;12.13;7.07;;;2.10;99.90;;;;;;4765234;30;20554;-88
2024/01/19 12:44:05;;;;;;;18.17;7.57;;;2.10;99.90;;;;;;4773715;30;20238;-90
2024/01/19 12:46:30;;;;;;;16.87;7.47;;;2.10;99.90;;;;;;4789733;29;20274;-90